sensor_id;sensor_type;location;lat;lon;timestamp;P1;durP1;ratioP1;P2;durP2;ratioP2
13218;SDS011;6674;49.152;11.918;2023-06-04T00:00:50;1.20;;;1.10;;
13218;SDS011;6674;49.152;11.918;2023-06-04T00:03:17;2.43;;;1.60;;
13218;SDS011;6674;49.152;11.918;2023-06-04T00:05:43;1.40;;;1.27;;
13218;SDS011;6674;49.152;11.918;2023-06-04T00:08:10;1.57;;;1.47;;
13218;SDS011;6674;49.152;11.918;2023-06-04T00:10:38;2.67;;;1.17;;
13218;SDS011;6674;49.152;11.918;2023-06-04T00:13:05;2.70;;;1.30;;
13218;SDS011;6674;49.152;11.918;2023-06-04T00:15:31;2.50;;;1.23;;
13218;SDS011;6674;49.152;11.918;2023-06-04T00:17:58;0.93;;;0.93;;
13218;SDS011;6674;49.152;11.918;2023-06-04T00:20:25;1.47;;;0.93;;
13218;SDS011;6674;49.152;11.918;2023-06-04T00:22:51;2.00;;;1.37;;
13218;SDS011;6674;49.152;11.918;2023-06-04T00:25:18;1.70;;;1.50;;
13218;SDS011;6674;49.152;11.918;2023-06-04T00:27:46;1.50;;;1.40;;
13218;SDS011;6674;49.152;11.918;2023-06-04T00:30:13;1.47;;;1.37;;
13218;SDS011;6674;49.152;11.918;2023-06-04T00:32:40;1.87;;;1.67;;
13218;SDS011;6674;49.152;11.918;2023-06-04T00:35:07;1.80;;;1.47;;
13218;SDS011;6674;49.152;11.918;2023-06-04T00:37:34;1.40;;;1.20;;
13218;SDS011;6674;49.152;11.918;2023-06-04T00:40:01;1.60;;;1.50;;
13218;SDS011;6674;49.152;11.918;2023-06-04T00:42:28;1.63;;;1.53;;
13218;SDS011;6674;49.152;11.918;2023-06-04T00:44:57;1.43;;;1.30;;
13218;SDS011;6674;49.152;11.918;2023-06-04T00:47:24;1.53;;;1.20;;
13218;SDS011;6674;49.152;11.918;2023-06-04T00:49:53;1.77;;;1.23;;
13218;SDS011;6674;49.152;11.918;2023-06-04T00:52:23;3.97;;;1.63;;
13218;SDS011;6674;49.152;11.918;2023-06-04T00:54:50;1.73;;;1.43;;
13218;SDS011;6674;49.152;11.918;2023-06-04T00:57:19;1.63;;;1.13;;
13218;SDS011;6674;49.152;11.918;2023-06-04T00:59:47;1.43;;;1.30;;
13218;SDS011;6674;49.152;11.918;2023-06-04T01:02:16;1.60;;;1.40;;
13218;SDS011;6674;49.152;11.918;2023-06-04T01:04:46;1.73;;;1.20;;
13218;SDS011;6674;49.152;11.918;2023-06-04T01:07:19;1.30;;;1.20;;
13218;SDS011;6674;49.152;11.918;2023-06-04T01:09:48;2.23;;;1.27;;
13218;SDS011;6674;49.152;11.918;2023-06-04T01:12:15;1.70;;;1.60;;
13218;SDS011;6674;49.152;11.918;2023-06-04T01:14:42;1.47;;;1.17;;
13218;SDS011;6674;49.152;11.918;2023-06-04T01:17:11;1.40;;;1.30;;
13218;SDS011;6674;49.152;11.918;2023-06-04T01:20:02;1.67;;;1.57;;
13218;SDS011;6674;49.152;11.918;2023-06-04T01:22:38;2.23;;;1.30;;
13218;SDS011;6674;49.152;11.918;2023-06-04T01:25:11;2.03;;;1.43;;
13218;SDS011;6674;49.152;11.918;2023-06-04T01:27:44;1.53;;;1.33;;
13218;SDS011;6674;49.152;11.918;2023-06-04T01:30:14;1.23;;;1.13;;
13218;SDS011;6674;49.152;11.918;2023-06-04T01:32:41;1.83;;;1.47;;
13218;SDS011;6674;49.152;11.918;2023-06-04T01:35:09;1.63;;;1.40;;
13218;SDS011;6674;49.152;11.918;2023-06-04T01:37:37;1.37;;;1.27;;
13218;SDS011;6674;49.152;11.918;2023-06-04T01:40:05;1.53;;;1.20;;
13218;SDS011;6674;49.152;11.918;2023-06-04T01:42:33;1.53;;;1.43;;
13218;SDS011;6674;49.152;11.918;2023-06-04T01:45:00;1.10;;;1.00;;
13218;SDS011;6674;49.152;11.918;2023-06-04T01:47:27;1.77;;;1.43;;
13218;SDS011;6674;49.152;11.918;2023-06-04T01:49:54;1.40;;;1.30;;
13218;SDS011;6674;49.152;11.918;2023-06-04T01:52:22;2.57;;;1.27;;
13218;SDS011;6674;49.152;11.918;2023-06-04T01:54:48;1.53;;;1.30;;
13218;SDS011;6674;49.152;11.918;2023-06-04T01:57:17;1.37;;;1.27;;
13218;SDS011;6674;49.152;11.918;2023-06-04T01:59:44;1.57;;;1.33;;
13218;SDS011;6674;49.152;11.918;2023-06-04T02:02:11;2.77;;;1.47;;
13218;SDS011;6674;49.152;11.918;2023-06-04T02:04:38;1.70;;;1.60;;
13218;SDS011;6674;49.152;11.918;2023-06-04T02:07:07;2.57;;;1.37;;
13218;SDS011;6674;49.152;11.918;2023-06-04T02:09:35;1.83;;;1.27;;
13218;SDS011;6674;49.152;11.918;2023-06-04T02:12:02;1.67;;;1.57;;
13218;SDS011;6674;49.152;11.918;2023-06-04T02:14:29;2.43;;;1.43;;
13218;SDS011;6674;49.152;11.918;2023-06-04T02:16:56;1.70;;;1.60;;
13218;SDS011;6674;49.152;11.918;2023-06-04T02:19:23;1.83;;;1.60;;
13218;SDS011;6674;49.152;11.918;2023-06-04T02:21:51;2.70;;;1.30;;
13218;SDS011;6674;49.152;11.918;2023-06-04T02:24:17;1.83;;;1.33;;
13218;SDS011;6674;49.152;11.918;2023-06-04T02:26:46;1.57;;;1.30;;
13218;SDS011;6674;49.152;11.918;2023-06-04T02:29:12;2.97;;;1.50;;
13218;SDS011;6674;49.152;11.918;2023-06-04T02:31:39;1.90;;;1.40;;
13218;SDS011;6674;49.152;11.918;2023-06-04T02:34:05;1.60;;;1.50;;
13218;SDS011;6674;49.152;11.918;2023-06-04T02:36:33;1.67;;;1.50;;
13218;SDS011;6674;49.152;11.918;2023-06-04T02:39:00;2.57;;;1.93;;
13218;SDS011;6674;49.152;11.918;2023-06-04T02:41:27;2.90;;;1.53;;
13218;SDS011;6674;49.152;11.918;2023-06-04T02:43:55;2.90;;;1.67;;
13218;SDS011;6674;49.152;11.918;2023-06-04T02:46:22;1.70;;;1.40;;
13218;SDS011;6674;49.152;11.918;2023-06-04T02:48:49;1.90;;;1.60;;
13218;SDS011;6674;49.152;11.918;2023-06-04T02:51:15;1.80;;;1.30;;
13218;SDS011;6674;49.152;11.918;2023-06-04T02:53:42;1.83;;;1.43;;
13218;SDS011;6674;49.152;11.918;2023-06-04T02:56:10;1.50;;;1.40;;
13218;SDS011;6674;49.152;11.918;2023-06-04T02:58:37;2.53;;;1.30;;
13218;SDS011;6674;49.152;11.918;2023-06-04T03:01:06;1.90;;;1.60;;
13218;SDS011;6674;49.152;11.918;2023-06-04T03:03:33;2.20;;;1.60;;
13218;SDS011;6674;49.152;11.918;2023-06-04T03:05:59;1.40;;;1.30;;
13218;SDS011;6674;49.152;11.918;2023-06-04T03:08:29;3.33;;;1.87;;
13218;SDS011;6674;49.152;11.918;2023-06-04T03:10:56;1.90;;;1.50;;
13218;SDS011;6674;49.152;11.918;2023-06-04T03:13:23;2.20;;;1.60;;
13218;SDS011;6674;49.152;11.918;2023-06-04T03:15:49;1.80;;;1.60;;
13218;SDS011;6674;49.152;11.918;2023-06-04T03:18:23;1.57;;;1.47;;
13218;SDS011;6674;49.152;11.918;2023-06-04T03:20:49;1.77;;;1.40;;
13218;SDS011;6674;49.152;11.918;2023-06-04T03:23:16;2.37;;;1.60;;
13218;SDS011;6674;49.152;11.918;2023-06-04T03:25:43;1.40;;;1.30;;
13218;SDS011;6674;49.152;11.918;2023-06-04T03:28:10;2.43;;;1.63;;
13218;SDS011;6674;49.152;11.918;2023-06-04T03:30:36;1.97;;;1.50;;
13218;SDS011;6674;49.152;11.918;2023-06-04T03:33:03;2.70;;;1.40;;
13218;SDS011;6674;49.152;11.918;2023-06-04T03:35:31;1.67;;;1.57;;
13218;SDS011;6674;49.152;11.918;2023-06-04T03:37:57;2.33;;;1.20;;
13218;SDS011;6674;49.152;11.918;2023-06-04T03:40:24;1.63;;;1.53;;
13218;SDS011;6674;49.152;11.918;2023-06-04T03:42:51;2.40;;;1.50;;
13218;SDS011;6674;49.152;11.918;2023-06-04T03:45:17;1.80;;;1.53;;
13218;SDS011;6674;49.152;11.918;2023-06-04T03:47:45;1.50;;;1.17;;
13218;SDS011;6674;49.152;11.918;2023-06-04T03:50:12;2.13;;;1.60;;
13218;SDS011;6674;49.152;11.918;2023-06-04T03:52:42;1.63;;;1.40;;
13218;SDS011;6674;49.152;11.918;2023-06-04T03:55:09;1.40;;;1.30;;
13218;SDS011;6674;49.152;11.918;2023-06-04T03:57:37;1.87;;;1.70;;
13218;SDS011;6674;49.152;11.918;2023-06-04T04:00:05;1.47;;;1.37;;
13218;SDS011;6674;49.152;11.918;2023-06-04T04:02:33;1.67;;;1.40;;
13218;SDS011;6674;49.152;11.918;2023-06-04T04:05:00;1.73;;;1.50;;
13218;SDS011;6674;49.152;11.918;2023-06-04T04:07:26;2.47;;;1.53;;
13218;SDS011;6674;49.152;11.918;2023-06-04T04:09:54;1.50;;;1.40;;
13218;SDS011;6674;49.152;11.918;2023-06-04T04:12:21;1.40;;;1.30;;
13218;SDS011;6674;49.152;11.918;2023-06-04T04:14:48;1.30;;;1.20;;
13218;SDS011;6674;49.152;11.918;2023-06-04T04:17:14;1.77;;;1.67;;
13218;SDS011;6674;49.152;11.918;2023-06-04T04:19:41;1.87;;;1.60;;
13218;SDS011;6674;49.152;11.918;2023-06-04T04:22:09;1.30;;;1.20;;
13218;SDS011;6674;49.152;11.918;2023-06-04T04:24:37;1.40;;;1.30;;
13218;SDS011;6674;49.152;11.918;2023-06-04T04:27:05;1.90;;;1.57;;
13218;SDS011;6674;49.152;11.918;2023-06-04T04:29:33;1.63;;;1.50;;
13218;SDS011;6674;49.152;11.918;2023-06-04T04:32:01;2.57;;;1.43;;
13218;SDS011;6674;49.152;11.918;2023-06-04T04:34:34;1.57;;;1.47;;
13218;SDS011;6674;49.152;11.918;2023-06-04T04:37:02;1.90;;;1.80;;
13218;SDS011;6674;49.152;11.918;2023-06-04T04:39:29;1.40;;;1.30;;
13218;SDS011;6674;49.152;11.918;2023-06-04T04:41:55;1.53;;;1.37;;
13218;SDS011;6674;49.152;11.918;2023-06-04T04:44:23;2.37;;;1.50;;
13218;SDS011;6674;49.152;11.918;2023-06-04T04:46:50;2.77;;;1.67;;
13218;SDS011;6674;49.152;11.918;2023-06-04T04:49:16;2.23;;;1.90;;
13218;SDS011;6674;49.152;11.918;2023-06-04T04:51:43;2.27;;;1.60;;
13218;SDS011;6674;49.152;11.918;2023-06-04T04:54:10;1.67;;;1.40;;
13218;SDS011;6674;49.152;11.918;2023-06-04T04:56:36;2.90;;;1.40;;
13218;SDS011;6674;49.152;11.918;2023-06-04T04:59:03;1.73;;;1.50;;
13218;SDS011;6674;49.152;11.918;2023-06-04T05:01:31;1.60;;;1.50;;
13218;SDS011;6674;49.152;11.918;2023-06-04T05:03:58;1.50;;;1.40;;
13218;SDS011;6674;49.152;11.918;2023-06-04T05:06:25;2.50;;;1.53;;
13218;SDS011;6674;49.152;11.918;2023-06-04T05:08:51;1.63;;;1.53;;
13218;SDS011;6674;49.152;11.918;2023-06-04T05:11:18;1.70;;;1.60;;
13218;SDS011;6674;49.152;11.918;2023-06-04T05:13:46;1.73;;;1.63;;
13218;SDS011;6674;49.152;11.918;2023-06-04T05:16:12;1.43;;;1.33;;
13218;SDS011;6674;49.152;11.918;2023-06-04T05:18:41;1.87;;;1.60;;
13218;SDS011;6674;49.152;11.918;2023-06-04T05:21:09;2.03;;;1.40;;
13218;SDS011;6674;49.152;11.918;2023-06-04T05:23:37;1.60;;;1.50;;
13218;SDS011;6674;49.152;11.918;2023-06-04T05:26:05;1.93;;;1.53;;
13218;SDS011;6674;49.152;11.918;2023-06-04T05:28:31;1.60;;;1.50;;
13218;SDS011;6674;49.152;11.918;2023-06-04T05:30:59;2.63;;;1.53;;
13218;SDS011;6674;49.152;11.918;2023-06-04T05:33:25;1.40;;;1.30;;
13218;SDS011;6674;49.152;11.918;2023-06-04T05:35:54;2.70;;;1.70;;
13218;SDS011;6674;49.152;11.918;2023-06-04T05:38:22;1.67;;;1.57;;
13218;SDS011;6674;49.152;11.918;2023-06-04T05:40:51;1.40;;;1.30;;
13218;SDS011;6674;49.152;11.918;2023-06-04T05:43:18;1.90;;;1.67;;
13218;SDS011;6674;49.152;11.918;2023-06-04T05:45:45;1.60;;;1.40;;
13218;SDS011;6674;49.152;11.918;2023-06-04T05:48:11;2.10;;;1.57;;
13218;SDS011;6674;49.152;11.918;2023-06-04T05:50:38;1.53;;;1.43;;
13218;SDS011;6674;49.152;11.918;2023-06-04T05:53:06;2.03;;;1.33;;
13218;SDS011;6674;49.152;11.918;2023-06-04T05:55:32;1.37;;;1.27;;
13218;SDS011;6674;49.152;11.918;2023-06-04T05:57:59;1.90;;;1.70;;
13218;SDS011;6674;49.152;11.918;2023-06-04T06:00:26;3.97;;;1.70;;
13218;SDS011;6674;49.152;11.918;2023-06-04T06:02:52;3.40;;;1.83;;
13218;SDS011;6674;49.152;11.918;2023-06-04T06:05:19;1.60;;;1.50;;
13218;SDS011;6674;49.152;11.918;2023-06-04T06:07:46;1.73;;;1.63;;
13218;SDS011;6674;49.152;11.918;2023-06-04T06:10:15;1.63;;;1.53;;
13218;SDS011;6674;49.152;11.918;2023-06-04T06:12:41;1.70;;;1.60;;
13218;SDS011;6674;49.152;11.918;2023-06-04T06:15:08;2.87;;;1.70;;
13218;SDS011;6674;49.152;11.918;2023-06-04T06:17:37;2.33;;;1.77;;
13218;SDS011;6674;49.152;11.918;2023-06-04T06:20:04;2.27;;;1.77;;
13218;SDS011;6674;49.152;11.918;2023-06-04T06:22:33;1.90;;;1.80;;
13218;SDS011;6674;49.152;11.918;2023-06-04T06:25:00;2.20;;;1.60;;
13218;SDS011;6674;49.152;11.918;2023-06-04T06:27:28;1.73;;;1.60;;
13218;SDS011;6674;49.152;11.918;2023-06-04T06:29:55;2.93;;;1.60;;
13218;SDS011;6674;49.152;11.918;2023-06-04T06:32:22;1.90;;;1.80;;
13218;SDS011;6674;49.152;11.918;2023-06-04T06:34:48;2.80;;;1.63;;
13218;SDS011;6674;49.152;11.918;2023-06-04T06:37:15;3.07;;;1.67;;
13218;SDS011;6674;49.152;11.918;2023-06-04T06:39:42;2.20;;;1.93;;
13218;SDS011;6674;49.152;11.918;2023-06-04T06:42:08;2.80;;;1.77;;
13218;SDS011;6674;49.152;11.918;2023-06-04T06:44:37;1.67;;;1.40;;
13218;SDS011;6674;49.152;11.918;2023-06-04T06:47:03;1.77;;;1.53;;
13218;SDS011;6674;49.152;11.918;2023-06-04T06:49:30;2.93;;;1.83;;
13218;SDS011;6674;49.152;11.918;2023-06-04T06:51:57;1.93;;;1.70;;
13218;SDS011;6674;49.152;11.918;2023-06-04T06:54:23;1.77;;;1.67;;
13218;SDS011;6674;49.152;11.918;2023-06-04T06:56:50;1.73;;;1.63;;
13218;SDS011;6674;49.152;11.918;2023-06-04T06:59:17;1.90;;;1.80;;
13218;SDS011;6674;49.152;11.918;2023-06-04T07:01:45;1.83;;;1.63;;
13218;SDS011;6674;49.152;11.918;2023-06-04T07:04:12;3.43;;;2.10;;
13218;SDS011;6674;49.152;11.918;2023-06-04T07:06:39;3.30;;;1.87;;
13218;SDS011;6674;49.152;11.918;2023-06-04T07:09:06;1.80;;;1.70;;
13218;SDS011;6674;49.152;11.918;2023-06-04T07:11:33;1.40;;;1.27;;
13218;SDS011;6674;49.152;11.918;2023-06-04T07:14:00;2.87;;;1.70;;
13218;SDS011;6674;49.152;11.918;2023-06-04T07:16:27;1.90;;;1.70;;
13218;SDS011;6674;49.152;11.918;2023-06-04T07:18:55;1.93;;;1.50;;
13218;SDS011;6674;49.152;11.918;2023-06-04T07:21:22;2.07;;;1.87;;
13218;SDS011;6674;49.152;11.918;2023-06-04T07:23:49;2.13;;;1.93;;
13218;SDS011;6674;49.152;11.918;2023-06-04T07:26:16;1.87;;;1.70;;
13218;SDS011;6674;49.152;11.918;2023-06-04T07:28:43;2.77;;;1.77;;
13218;SDS011;6674;49.152;11.918;2023-06-04T07:31:10;1.77;;;1.67;;
13218;SDS011;6674;49.152;11.918;2023-06-04T07:33:37;1.60;;;1.50;;
13218;SDS011;6674;49.152;11.918;2023-06-04T07:36:09;1.93;;;1.70;;
13218;SDS011;6674;49.152;11.918;2023-06-04T07:38:37;2.40;;;1.80;;
13218;SDS011;6674;49.152;11.918;2023-06-04T07:41:03;1.43;;;1.37;;
13218;SDS011;6674;49.152;11.918;2023-06-04T07:43:30;1.30;;;1.20;;
13218;SDS011;6674;49.152;11.918;2023-06-04T07:45:57;1.73;;;1.53;;
13218;SDS011;6674;49.152;11.918;2023-06-04T07:48:23;2.20;;;2.00;;
13218;SDS011;6674;49.152;11.918;2023-06-04T07:50:55;2.20;;;2.00;;
13218;SDS011;6674;49.152;11.918;2023-06-04T07:53:23;1.83;;;1.50;;
13218;SDS011;6674;49.152;11.918;2023-06-04T07:55:50;3.03;;;2.00;;
13218;SDS011;6674;49.152;11.918;2023-06-04T07:58:17;1.87;;;1.77;;
13218;SDS011;6674;49.152;11.918;2023-06-04T08:00:44;2.43;;;2.13;;
13218;SDS011;6674;49.152;11.918;2023-06-04T08:03:11;2.10;;;1.80;;
13218;SDS011;6674;49.152;11.918;2023-06-04T08:05:40;1.93;;;1.70;;
13218;SDS011;6674;49.152;11.918;2023-06-04T08:08:07;4.77;;;1.77;;
13218;SDS011;6674;49.152;11.918;2023-06-04T08:10:35;2.83;;;2.20;;
13218;SDS011;6674;49.152;11.918;2023-06-04T08:13:02;2.00;;;1.80;;
13218;SDS011;6674;49.152;11.918;2023-06-04T08:15:29;2.27;;;2.00;;
13218;SDS011;6674;49.152;11.918;2023-06-04T08:17:56;2.17;;;1.97;;
13218;SDS011;6674;49.152;11.918;2023-06-04T08:20:22;2.70;;;1.77;;
13218;SDS011;6674;49.152;11.918;2023-06-04T08:22:49;1.93;;;1.63;;
13218;SDS011;6674;49.152;11.918;2023-06-04T08:25:16;2.07;;;1.87;;
13218;SDS011;6674;49.152;11.918;2023-06-04T08:27:44;2.00;;;1.80;;
13218;SDS011;6674;49.152;11.918;2023-06-04T08:30:11;3.17;;;1.90;;
13218;SDS011;6674;49.152;11.918;2023-06-04T08:32:37;2.67;;;2.13;;
13218;SDS011;6674;49.152;11.918;2023-06-04T08:35:06;2.13;;;1.90;;
13218;SDS011;6674;49.152;11.918;2023-06-04T08:37:33;5.53;;;1.90;;
13218;SDS011;6674;49.152;11.918;2023-06-04T08:39:59;2.20;;;1.60;;
13218;SDS011;6674;49.152;11.918;2023-06-04T08:42:27;2.13;;;1.93;;
13218;SDS011;6674;49.152;11.918;2023-06-04T08:44:57;4.03;;;2.10;;
13218;SDS011;6674;49.152;11.918;2023-06-04T08:47:24;2.40;;;2.00;;
13218;SDS011;6674;49.152;11.918;2023-06-04T08:49:52;2.30;;;1.77;;
13218;SDS011;6674;49.152;11.918;2023-06-04T08:52:18;1.60;;;1.50;;
13218;SDS011;6674;49.152;11.918;2023-06-04T08:54:48;2.30;;;2.03;;
13218;SDS011;6674;49.152;11.918;2023-06-04T08:57:16;2.67;;;1.87;;
13218;SDS011;6674;49.152;11.918;2023-06-04T08:59:43;1.67;;;1.40;;
13218;SDS011;6674;49.152;11.918;2023-06-04T09:02:12;1.93;;;1.80;;
13218;SDS011;6674;49.152;11.918;2023-06-04T09:04:40;2.07;;;1.90;;
13218;SDS011;6674;49.152;11.918;2023-06-04T09:07:08;2.07;;;1.87;;
13218;SDS011;6674;49.152;11.918;2023-06-04T09:09:36;2.10;;;1.90;;
13218;SDS011;6674;49.152;11.918;2023-06-04T09:12:05;2.30;;;1.90;;
13218;SDS011;6674;49.152;11.918;2023-06-04T09:14:35;2.10;;;1.90;;
13218;SDS011;6674;49.152;11.918;2023-06-04T09:17:02;2.40;;;2.07;;
13218;SDS011;6674;49.152;11.918;2023-06-04T09:19:30;2.90;;;2.00;;
13218;SDS011;6674;49.152;11.918;2023-06-04T09:21:57;2.03;;;1.93;;
13218;SDS011;6674;49.152;11.918;2023-06-04T09:24:26;2.07;;;1.87;;
13218;SDS011;6674;49.152;11.918;2023-06-04T09:27:09;2.00;;;1.80;;
13218;SDS011;6674;49.152;11.918;2023-06-04T09:29:36;2.20;;;2.00;;
13218;SDS011;6674;49.152;11.918;2023-06-04T09:32:03;2.10;;;1.90;;
13218;SDS011;6674;49.152;11.918;2023-06-04T09:34:31;2.23;;;1.80;;
13218;SDS011;6674;49.152;11.918;2023-06-04T09:36:58;1.73;;;1.63;;
13218;SDS011;6674;49.152;11.918;2023-06-04T09:39:25;2.13;;;2.00;;
13218;SDS011;6674;49.152;11.918;2023-06-04T09:41:58;2.30;;;2.00;;
13218;SDS011;6674;49.152;11.918;2023-06-04T09:44:25;2.00;;;1.80;;
13218;SDS011;6674;49.152;11.918;2023-06-04T09:46:55;1.87;;;1.77;;
13218;SDS011;6674;49.152;11.918;2023-06-04T09:49:22;2.70;;;2.00;;
13218;SDS011;6674;49.152;11.918;2023-06-04T09:51:50;2.53;;;2.23;;
13218;SDS011;6674;49.152;11.918;2023-06-04T09:54:17;1.87;;;1.77;;
13218;SDS011;6674;49.152;11.918;2023-06-04T09:56:45;2.17;;;1.83;;
13218;SDS011;6674;49.152;11.918;2023-06-04T09:59:11;1.80;;;1.70;;
13218;SDS011;6674;49.152;11.918;2023-06-04T10:01:40;2.60;;;2.00;;
13218;SDS011;6674;49.152;11.918;2023-06-04T10:04:08;2.70;;;1.93;;
13218;SDS011;6674;49.152;11.918;2023-06-04T10:06:37;2.23;;;2.03;;
13218;SDS011;6674;49.152;11.918;2023-06-04T10:09:07;2.07;;;1.97;;
13218;SDS011;6674;49.152;11.918;2023-06-04T10:11:34;2.60;;;2.20;;
13218;SDS011;6674;49.152;11.918;2023-06-04T10:14:05;3.53;;;2.03;;
13218;SDS011;6674;49.152;11.918;2023-06-04T10:16:36;2.33;;;2.13;;
13218;SDS011;6674;49.152;11.918;2023-06-04T10:19:05;2.13;;;1.93;;
13218;SDS011;6674;49.152;11.918;2023-06-04T10:21:33;2.70;;;2.50;;
13218;SDS011;6674;49.152;11.918;2023-06-04T10:24:01;2.13;;;2.03;;
13218;SDS011;6674;49.152;11.918;2023-06-04T10:26:29;2.83;;;1.90;;
13218;SDS011;6674;49.152;11.918;2023-06-04T10:28:58;2.67;;;1.97;;
13218;SDS011;6674;49.152;11.918;2023-06-04T10:31:27;2.20;;;2.00;;
13218;SDS011;6674;49.152;11.918;2023-06-04T10:33:54;2.20;;;1.90;;
13218;SDS011;6674;49.152;11.918;2023-06-04T10:36:21;1.97;;;1.87;;
13218;SDS011;6674;49.152;11.918;2023-06-04T10:38:50;2.30;;;2.10;;
13218;SDS011;6674;49.152;11.918;2023-06-04T10:41:18;2.57;;;2.20;;
13218;SDS011;6674;49.152;11.918;2023-06-04T10:43:47;2.60;;;2.40;;
13218;SDS011;6674;49.152;11.918;2023-06-04T10:46:16;2.30;;;2.10;;
13218;SDS011;6674;49.152;11.918;2023-06-04T10:48:45;2.30;;;2.10;;
13218;SDS011;6674;49.152;11.918;2023-06-04T10:51:13;2.43;;;2.23;;
13218;SDS011;6674;49.152;11.918;2023-06-04T10:53:40;2.53;;;1.87;;
13218;SDS011;6674;49.152;11.918;2023-06-04T10:56:07;1.83;;;1.73;;
13218;SDS011;6674;49.152;11.918;2023-06-04T10:58:34;2.27;;;2.07;;
13218;SDS011;6674;49.152;11.918;2023-06-04T11:01:02;4.43;;;2.20;;
13218;SDS011;6674;49.152;11.918;2023-06-04T11:03:35;3.67;;;2.40;;
13218;SDS011;6674;49.152;11.918;2023-06-04T11:06:02;2.43;;;1.90;;
13218;SDS011;6674;49.152;11.918;2023-06-04T11:08:40;2.17;;;2.00;;
13218;SDS011;6674;49.152;11.918;2023-06-04T11:11:10;2.30;;;2.00;;
13218;SDS011;6674;49.152;11.918;2023-06-04T11:13:37;2.30;;;2.10;;
13218;SDS011;6674;49.152;11.918;2023-06-04T11:16:13;2.97;;;2.20;;
13218;SDS011;6674;49.152;11.918;2023-06-04T11:18:41;2.30;;;2.10;;
13218;SDS011;6674;49.152;11.918;2023-06-04T11:21:08;2.63;;;2.20;;
13218;SDS011;6674;49.152;11.918;2023-06-04T11:23:36;1.93;;;1.80;;
13218;SDS011;6674;49.152;11.918;2023-06-04T11:26:03;2.40;;;2.20;;
13218;SDS011;6674;49.152;11.918;2023-06-04T11:28:30;2.17;;;2.08;;
13218;SDS011;6674;49.152;11.918;2023-06-04T11:30:57;2.40;;;2.20;;
13218;SDS011;6674;49.152;11.918;2023-06-04T11:33:25;2.40;;;2.20;;
13218;SDS011;6674;49.152;11.918;2023-06-04T11:35:53;2.25;;;2.13;;
13218;SDS011;6674;49.152;11.918;2023-06-04T11:38:20;2.58;;;2.30;;
13218;SDS011;6674;49.152;11.918;2023-06-04T11:40:54;2.65;;;1.80;;
13218;SDS011;6674;49.152;11.918;2023-06-04T11:43:22;2.17;;;2.00;;
13218;SDS011;6674;49.152;11.918;2023-06-04T11:45:49;2.33;;;1.90;;
13218;SDS011;6674;49.152;11.918;2023-06-04T11:48:16;1.90;;;1.80;;
13218;SDS011;6674;49.152;11.918;2023-06-04T11:50:44;2.20;;;2.00;;
13218;SDS011;6674;49.152;11.918;2023-06-04T11:53:12;2.67;;;2.00;;
13218;SDS011;6674;49.152;11.918;2023-06-04T11:55:39;2.92;;;2.20;;
13218;SDS011;6674;49.152;11.918;2023-06-04T11:58:06;2.70;;;2.15;;
13218;SDS011;6674;49.152;11.918;2023-06-04T12:00:33;2.72;;;2.38;;
13218;SDS011;6674;49.152;11.918;2023-06-04T12:02:59;2.53;;;2.08;;
13218;SDS011;6674;49.152;11.918;2023-06-04T12:05:28;2.30;;;2.10;;
13218;SDS011;6674;49.152;11.918;2023-06-04T12:08:05;3.42;;;2.40;;
13218;SDS011;6674;49.152;11.918;2023-06-04T12:10:36;2.83;;;2.30;;
13218;SDS011;6674;49.152;11.918;2023-06-04T12:13:03;2.40;;;1.80;;
13218;SDS011;6674;49.152;11.918;2023-06-04T12:15:30;2.50;;;2.40;;
13218;SDS011;6674;49.152;11.918;2023-06-04T12:17:57;2.67;;;2.47;;
13218;SDS011;6674;49.152;11.918;2023-06-04T12:20:32;2.17;;;2.08;;
13218;SDS011;6674;49.152;11.918;2023-06-04T12:22:59;2.00;;;1.90;;
13218;SDS011;6674;49.152;11.918;2023-06-04T12:25:28;2.35;;;2.15;;
13218;SDS011;6674;49.152;11.918;2023-06-04T12:27:56;2.70;;;2.20;;
13218;SDS011;6674;49.152;11.918;2023-06-04T12:30:23;2.72;;;1.98;;
13218;SDS011;6674;49.152;11.918;2023-06-04T12:32:50;2.10;;;1.90;;
13218;SDS011;6674;49.152;11.918;2023-06-04T12:35:16;2.55;;;2.10;;
13218;SDS011;6674;49.152;11.918;2023-06-04T12:37:43;2.35;;;2.10;;
13218;SDS011;6674;49.152;11.918;2023-06-04T12:40:10;1.92;;;1.77;;
13218;SDS011;6674;49.152;11.918;2023-06-04T12:42:39;2.30;;;2.08;;
13218;SDS011;6674;49.152;11.918;2023-06-04T12:45:08;2.78;;;2.10;;
13218;SDS011;6674;49.152;11.918;2023-06-04T12:47:36;2.00;;;1.90;;
13218;SDS011;6674;49.152;11.918;2023-06-04T12:50:02;2.28;;;2.00;;
13218;SDS011;6674;49.152;11.918;2023-06-04T12:52:29;3.67;;;2.13;;
13218;SDS011;6674;49.152;11.918;2023-06-04T12:54:56;2.20;;;2.00;;
13218;SDS011;6674;49.152;11.918;2023-06-04T12:57:23;2.28;;;2.08;;
13218;SDS011;6674;49.152;11.918;2023-06-04T12:59:51;3.67;;;2.20;;
13218;SDS011;6674;49.152;11.918;2023-06-04T13:02:18;2.45;;;2.17;;
13218;SDS011;6674;49.152;11.918;2023-06-04T13:04:44;2.33;;;2.05;;
13218;SDS011;6674;49.152;11.918;2023-06-04T13:07:11;2.38;;;2.17;;
13218;SDS011;6674;49.152;11.918;2023-06-04T13:09:38;2.08;;;1.75;;
13218;SDS011;6674;49.152;11.918;2023-06-04T13:12:05;2.30;;;2.20;;
13218;SDS011;6674;49.152;11.918;2023-06-04T13:14:34;2.50;;;2.30;;
13218;SDS011;6674;49.152;11.918;2023-06-04T13:17:02;3.15;;;2.15;;
13218;SDS011;6674;49.152;11.918;2023-06-04T13:19:29;2.30;;;2.13;;
13218;SDS011;6674;49.152;11.918;2023-06-04T13:21:56;2.25;;;2.05;;
13218;SDS011;6674;49.152;11.918;2023-06-04T13:24:23;2.22;;;1.95;;
13218;SDS011;6674;49.152;11.918;2023-06-04T13:26:50;2.55;;;2.33;;
13218;SDS011;6674;49.152;11.918;2023-06-04T13:29:17;2.17;;;1.98;;
13218;SDS011;6674;49.152;11.918;2023-06-04T13:31:47;2.35;;;2.10;;
13218;SDS011;6674;49.152;11.918;2023-06-04T13:34:15;2.55;;;2.35;;
13218;SDS011;6674;49.152;11.918;2023-06-04T13:36:42;2.40;;;2.20;;
13218;SDS011;6674;49.152;11.918;2023-06-04T13:39:09;1.90;;;1.80;;
13218;SDS011;6674;49.152;11.918;2023-06-04T13:41:36;2.30;;;2.08;;
13218;SDS011;6674;49.152;11.918;2023-06-04T13:44:02;2.30;;;2.00;;
13218;SDS011;6674;49.152;11.918;2023-06-04T13:46:29;2.20;;;2.10;;
13218;SDS011;6674;49.152;11.918;2023-06-04T13:48:56;2.10;;;2.00;;
13218;SDS011;6674;49.152;11.918;2023-06-04T13:51:24;2.42;;;2.00;;
13218;SDS011;6674;49.152;11.918;2023-06-04T13:53:52;2.10;;;2.00;;
13218;SDS011;6674;49.152;11.918;2023-06-04T13:56:20;2.33;;;2.22;;
13218;SDS011;6674;49.152;11.918;2023-06-04T13:58:46;2.50;;;2.30;;
13218;SDS011;6674;49.152;11.918;2023-06-04T14:01:13;2.10;;;2.00;;
13218;SDS011;6674;49.152;11.918;2023-06-04T14:03:41;2.45;;;2.25;;
13218;SDS011;6674;49.152;11.918;2023-06-04T14:06:08;2.50;;;2.30;;
13218;SDS011;6674;49.152;11.918;2023-06-04T14:08:36;2.33;;;2.13;;
13218;SDS011;6674;49.152;11.918;2023-06-04T14:11:03;3.05;;;2.15;;
13218;SDS011;6674;49.152;11.918;2023-06-04T14:13:29;2.55;;;2.30;;
13218;SDS011;6674;49.152;11.918;2023-06-04T14:15:56;2.58;;;2.38;;
13218;SDS011;6674;49.152;11.918;2023-06-04T14:18:23;2.90;;;2.33;;
13218;SDS011;6674;49.152;11.918;2023-06-04T14:20:49;2.67;;;2.40;;
13218;SDS011;6674;49.152;11.918;2023-06-04T14:23:16;2.40;;;2.20;;
13218;SDS011;6674;49.152;11.918;2023-06-04T14:25:45;2.35;;;2.25;;
13218;SDS011;6674;49.152;11.918;2023-06-04T14:28:11;2.17;;;2.08;;
13218;SDS011;6674;49.152;11.918;2023-06-04T14:30:39;2.42;;;2.20;;
13218;SDS011;6674;49.152;11.918;2023-06-04T14:33:06;2.50;;;2.10;;
13218;SDS011;6674;49.152;11.918;2023-06-04T14:35:33;2.50;;;2.30;;
13218;SDS011;6674;49.152;11.918;2023-06-04T14:37:59;2.42;;;2.20;;
13218;SDS011;6674;49.152;11.918;2023-06-04T14:40:27;2.42;;;2.22;;
13218;SDS011;6674;49.152;11.918;2023-06-04T14:42:55;2.78;;;2.58;;
13218;SDS011;6674;49.152;11.918;2023-06-04T14:45:22;2.30;;;2.20;;
13218;SDS011;6674;49.152;11.918;2023-06-04T14:47:49;2.35;;;2.25;;
13218;SDS011;6674;49.152;11.918;2023-06-04T14:50:17;2.60;;;2.40;;